Time;durP1;ratioP1;P1;durP2;ratioP2;P2;SDS_P1;SDS_P2;PMS_P1;PMS_P2;Temp;Humidity;BMP_temperature;BMP_pressure;BME280_temperature;BME280_humidity;BME280_pressure;Samples;Min_cycle;Max_cycle;Signal;HPM_P1;HPM_P2
2022/08/01 00:00:10;;;;;;;3.30;2.97;;;;;;;21.13;49.17;94790.69;5057695;28;20581;-70
2022/08/01 00:02:38;;;;;;;2.95;2.75;;;;;;;21.12;49.30;94789.09;5057326;28;20222;-69
2022/08/01 00:05:08;;;;;;;3.40;3.10;;;;;;;21.12;49.82;94795.50;5056221;28;20281;-69
2022/08/01 00:07:35;;;;;;;3.28;3.08;;;;;;;21.13;49.70;94799.91;5057017;28;20213;-69
2022/08/01 00:10:04;;;;;;;3.03;2.83;;;;;;;21.11;49.42;94788.31;5057094;28;20192;-69
2022/08/01 00:12:32;;;;;;;2.67;2.47;;;;;;;21.11;49.34;94793.94;5057282;28;20213;-70
2022/08/01 00:14:59;;;;;;;3.10;2.90;;;;;;;21.10;49.42;94789.56;5058146;28;20201;-70
2022/08/01 00:17:27;;;;;;;4.63;4.22;;;;;;;21.05;49.31;94790.03;5057628;28;20205;-70
2022/08/01 00:19:55;;;;;;;3.67;3.28;;;;;;;21.01;49.17;94794.91;5057319;28;20186;-69
2022/08/01 00:22:23;;;;;;;3.05;2.85;;;;;;;21.01;48.80;94797.72;5057882;28;20251;-69
2022/08/01 00:24:51;;;;;;;2.90;2.70;;;;;;;21.00;48.86;94798.94;5057460;28;20201;-69
2022/08/01 00:27:18;;;;;;;3.10;2.72;;;;;;;21.01;48.90;94796.91;5056370;28;20626;-69
2022/08/01 00:29:47;;;;;;;3.58;2.75;;;;;;;20.97;48.75;94791.38;5057448;28;20185;-69
2022/08/01 00:32:14;;;;;;;2.60;2.40;;;;;;;20.96;48.66;94789.81;5056471;28;20193;-70
2022/08/01 00:34:43;;;;;;;2.78;2.60;;;;;;;20.94;48.29;94791.44;5017376;28;20195;-69
2022/08/01 00:37:11;;;;;;;2.42;2.28;;;;;;;20.96;48.19;94795.41;5017609;28;20195;-69
2022/08/01 00:39:39;;;;;;;2.70;2.50;;;;;;;20.95;48.81;94796.59;5017701;28;20202;-70
2022/08/01 00:42:09;;;;;;;2.67;2.47;;;;;;;20.95;49.07;94795.81;5016515;28;20211;-70
2022/08/01 00:44:37;;;;;;;2.67;2.47;;;;;;;20.94;49.60;94797.84;5016578;28;20199;-70
2022/08/01 00:47:06;;;;;;;3.05;2.85;;;;;;;20.73;51.18;94795.38;5017097;28;20525;-70
2022/08/01 00:49:35;;;;;;;4.00;3.70;;;;;;;20.46;52.45;94801.78;5017057;28;20203;-69
2022/08/01 00:52:06;;;;;;;3.92;3.63;;;;;;;20.31;53.96;94804.00;5016674;28;20195;-69
2022/08/01 00:54:33;;;;;;;4.28;3.90;;;;;;;20.12;54.27;94799.88;5017478;28;20202;-70
2022/08/01 00:57:02;;;;;;;4.25;3.95;;;;;;;20.05;54.21;94797.19;5017265;28;20195;-70
2022/08/01 00:59:30;;;;;;;3.88;3.58;;;;;;;20.01;54.62;94799.25;5017200;28;20183;-70
2022/08/01 01:01:56;;;;;;;5.28;4.78;;;;;;;19.96;54.38;94794.88;5017358;28;20222;-70
2022/08/01 01:04:24;;;;;;;5.60;5.10;;;;;;;19.93;54.68;94792.13;5016146;28;20629;-70
2022/08/01 01:06:59;;;;;;;3.90;3.60;;;;;;;19.91;53.56;94783.38;5017161;28;20207;-70
2022/08/01 01:09:36;;;;;;;3.13;2.92;;;;;;;19.93;53.90;94778.94;5016385;28;20608;-69
2022/08/01 01:12:12;;;;;;;3.40;2.80;;;;;;;19.90;54.03;94782.59;5016763;28;20190;-69
2022/08/01 01:14:46;;;;;;;3.00;2.78;;;;;;;19.91;54.65;94774.97;5015910;28;20213;-69
2022/08/01 01:17:18;;;;;;;3.65;2.85;;;;;;;19.87;54.80;94780.63;5015408;28;20211;-69
2022/08/01 01:19:49;;;;;;;3.15;2.90;;;;;;;19.85;54.47;94777.44;5017030;28;20274;-69
2022/08/01 01:22:25;;;;;;;3.25;3.05;;;;;;;19.84;54.08;94775.06;5016998;28;20207;-69
2022/08/01 01:25:07;;;;;;;2.92;2.72;;;;;;;19.85;54.58;94776.66;5017001;28;20262;-69
2022/08/01 01:27:46;;;;;;;2.90;2.70;;;;;;;19.83;54.46;94765.88;5016705;28;20183;-69
2022/08/01 01:30:16;;;;;;;3.20;3.00;;;;;;;19.78;55.30;94771.16;5016140;28;20218;-69
2022/08/01 01:32:46;;;;;;;3.20;3.00;;;;;;;19.72;55.58;94768.03;5024038;28;20245;-69
2022/08/01 01:35:16;;;;;;;3.00;2.80;;;;;;;19.68;53.47;94758.88;5056189;28;20182;-69
2022/08/01 01:37:45;;;;;;;2.22;2.10;;;;;;;19.80;52.05;94751.94;5055257;28;20568;-69
2022/08/01 01:40:13;;;;;;;3.75;3.38;;;;;;;19.86;53.57;94753.84;5055863;28;20194;-69
2022/08/01 01:42:42;;;;;;;3.47;2.97;;;;;;;19.81;55.23;94748.72;5055471;28;20228;-69
2022/08/01 01:45:10;;;;;;;3.00;2.80;;;;;;;19.71;55.53;94744.84;5055211;28;20209;-69
2022/08/01 01:47:39;;;;;;;3.00;2.80;;;;;;;19.68;53.24;94740.09;5054940;28;20202;-69
2022/08/01 01:50:07;;;;;;;2.58;2.42;;;;;;;19.85;50.43;94735.47;5055317;28;20588;-69
2022/08/01 01:52:34;;;;;;;2.20;2.10;;;;;;;19.99;49.64;94736.50;5055897;28;20227;-69
2022/08/01 01:55:05;;;;;;;2.28;2.00;;;;;;;20.07;48.31;94740.75;5054915;28;20202;-70
2022/08/01 01:57:32;;;;;;;2.10;2.00;;;;;;;20.13;48.17;94739.06;5054732;28;20201;-69
2022/08/01 02:00:01;;;;;;;2.25;2.10;;;;;;;20.12;47.14;94738.28;5055965;28;20202;-69
2022/08/01 02:02:29;;;;;;;2.08;1.98;;;;;;;20.17;46.91;94737.00;5055555;28;20205;-69
2022/08/01 02:04:59;;;;;;;2.13;1.90;;;;;;;20.19;46.29;94738.19;5055693;28;20186;-69
2022/08/01 02:07:28;;;;;;;2.30;2.20;;;;;;;20.19;45.69;94735.38;5054484;28;20197;-69
2022/08/01 02:09:58;;;;;;;2.10;2.00;;;;;;;20.24;44.87;94738.91;5055263;28;20553;-69
2022/08/01 02:12:26;;;;;;;2.22;2.00;;;;;;;20.24;44.36;94730.50;5054741;28;20205;-69
2022/08/01 02:14:54;;;;;;;2.65;2.20;;;;;;;20.25;43.76;94734.91;5055252;28;20535;-69
2022/08/01 02:17:24;;;;;;;2.38;1.98;;;;;;;20.24;43.16;94720.09;5055164;28;20570;-69
2022/08/01 02:19:55;;;;;;;2.10;1.90;;;;;;;20.21;43.26;94715.34;5054460;28;20197;-69
2022/08/01 02:22:30;;;;;;;2.78;2.40;;;;;;;20.18;42.22;94708.56;5055563;28;20213;-69
2022/08/01 02:25:02;;;;;;;2.30;2.20;;;;;;;20.18;41.91;94722.56;5054794;28;20198;-70
2022/08/01 02:27:33;;;;;;;2.42;2.10;;;;;;;20.25;41.96;94713.28;5054974;28;20496;-70
2022/08/01 02:30:04;;;;;;;2.20;2.10;;;;;;;20.32;42.24;94723.59;5054340;28;20591;-70
2022/08/01 02:32:35;;;;;;;1.90;1.80;;;;;;;20.35;41.66;94720.72;5054220;28;20208;-70
2022/08/01 02:35:04;;;;;;;1.88;1.77;;;;;;;20.37;41.76;94712.69;5054274;28;20202;-70
2022/08/01 02:37:35;;;;;;;2.78;2.10;;;;;;;20.38;41.83;94719.09;5055199;28;20260;-70
2022/08/01 02:40:06;;;;;;;2.10;2.00;;;;;;;20.39;42.02;94720.66;5054405;28;20201;-70
2022/08/01 02:42:36;;;;;;;2.10;1.88;;;;;;;20.41;41.79;94726.66;5054729;28;20316;-70
2022/08/01 02:45:04;;;;;;;2.20;2.10;;;;;;;20.41;41.53;94729.44;5054308;28;20202;-69
2022/08/01 02:47:33;;;;;;;2.05;1.83;;;;;;;20.41;41.58;94721.06;5053370;28;20228;-69
2022/08/01 02:50:00;;;;;;;2.17;2.00;;;;;;;20.44;41.24;94726.59;5053809;28;20209;-70
2022/08/01 02:52:29;;;;;;;2.30;2.00;;;;;;;20.43;41.10;94716.59;5054582;28;20193;-70
2022/08/01 02:55:00;;;;;;;2.38;2.17;;;;;;;20.44;42.11;94715.38;5054903;28;20197;-70
2022/08/01 02:57:28;;;;;;;2.10;1.90;;;;;;;20.43;41.78;94716.59;5054706;28;20201;-69
2022/08/01 02:59:58;;;;;;;2.38;2.00;;;;;;;20.43;42.01;94722.19;5054965;28;20200;-69
2022/08/01 03:02:28;;;;;;;4.05;2.15;;;;;;;20.43;41.84;94719.38;5053931;28;20245;-69
2022/08/01 03:04:59;;;;;;;2.15;1.90;;;;;;;20.46;42.30;94719.75;5053793;28;20197;-69
2022/08/01 03:07:27;;;;;;;2.05;1.95;;;;;;;20.47;42.29;94721.34;5053718;28;20206;-69
2022/08/01 03:09:55;;;;;;;2.67;2.45;;;;;;;20.46;41.90;94714.16;5054145;28;20194;-69
2022/08/01 03:12:28;;;;;;;2.40;2.20;;;;;;;20.41;41.88;94710.63;5054059;28;20194;-69
2022/08/01 03:14:57;;;;;;;3.08;2.45;;;;;;;20.40;42.30;94711.81;5053581;28;20198;-69
2022/08/01 03:17:26;;;;;;;3.03;2.80;;;;;;;20.40;42.59;94723.03;5053893;28;20255;-69
2022/08/01 03:19:54;;;;;;;2.42;2.20;;;;;;;20.43;42.38;94719.38;5053968;28;20208;-69
2022/08/01 03:22:25;;;;;;;2.90;2.65;;;;;;;20.47;42.28;94724.13;5054328;28;20535;-69
2022/08/01 03:24:54;;;;;;;2.40;2.20;;;;;;;20.47;42.25;94726.94;5053885;28;20205;-69
2022/08/01 03:27:22;;;;;;;2.63;2.42;;;;;;;20.47;42.41;94722.13;5053634;28;20202;-69
2022/08/01 03:29:56;;;;;;;2.30;2.17;;;;;;;20.47;42.24;94718.53;5054371;28;20189;-69
2022/08/01 03:32:26;;;;;;;2.70;2.50;;;;;;;20.46;42.17;94726.16;5053630;28;20229;-69
2022/08/01 03:34:54;;;;;;;2.97;2.45;;;;;;;20.46;42.00;94728.16;5053424;28;20197;-69
2022/08/01 03:37:25;;;;;;;2.72;2.50;;;;;;;20.47;42.09;94724.94;5053999;28;20198;-69
2022/08/01 03:39:59;;;;;;;2.55;2.33;;;;;;;20.48;42.21;94737.75;5054456;28;20197;-69
2022/08/01 03:42:32;;;;;;;4.18;2.92;;;;;;;20.46;42.09;94728.16;5057567;28;20239;-69
2022/08/01 03:45:05;;;;;;;4.22;2.50;;;;;;;20.47;42.50;94724.94;5057658;28;20202;-70
2022/08/01 03:47:34;;;;;;;3.10;2.85;;;;;;;20.44;42.64;94726.59;5058336;28;20190;-70
2022/08/01 03:50:01;;;;;;;3.53;2.90;;;;;;;20.43;42.17;94727.00;5058290;28;20189;-70
2022/08/01 03:52:29;;;;;;;2.80;2.60;;;;;;;20.42;42.13;94717.03;5057456;28;20205;-69
2022/08/01 03:55:00;;;;;;;3.10;2.80;;;;;;;20.41;42.42;94724.63;5056899;28;20225;-69
2022/08/01 03:57:31;;;;;;;3.08;2.88;;;;;;;20.48;43.10;94723.72;5057160;28;20208;-69
2022/08/01 03:59:58;;;;;;;3.28;2.95;;;;;;;20.53;41.67;94714.88;5057311;28;20292;-70
2022/08/01 04:02:28;;;;;;;3.05;2.85;;;;;;;20.50;42.04;94717.72;5057884;28;20193;-69
2022/08/01 04:04:56;;;;;;;3.97;3.67;;;;;;;20.49;41.75;94716.13;5057008;28;20198;-69
2022/08/01 04:07:26;;;;;;;4.57;2.92;;;;;;;20.47;41.99;94724.13;5057707;28;20209;-69
2022/08/01 04:09:53;;;;;;;2.90;2.70;;;;;;;20.45;41.73;94721.78;5057879;28;20205;-69
2022/08/01 04:12:20;;;;;;;2.60;2.50;;;;;;;20.44;41.65;94726.59;5058000;28;20192;-69
2022/08/01 04:14:48;;;;;;;3.25;2.95;;;;;;;20.48;41.71;94725.72;5057094;28;20197;-70
2022/08/01 04:17:16;;;;;;;2.78;2.58;;;;;;;20.51;41.94;94724.91;5057658;28;20178;-69
2022/08/01 04:19:46;;;;;;;3.83;3.17;;;;;;;20.53;42.23;94725.28;5056665;28;20205;-69
2022/08/01 04:22:14;;;;;;;5.13;3.40;;;;;;;20.55;41.75;94740.44;5057568;28;20202;-69
2022/08/01 04:24:48;;;;;;;3.00;2.80;;;;;;;20.58;41.96;94733.19;5056540;28;20217;-69
2022/08/01 04:27:19;;;;;;;2.58;2.35;;;;;;;20.60;41.64;94730.75;5057621;28;20194;-69
2022/08/01 04:29:50;;;;;;;3.03;2.72;;;;;;;20.60;41.97;94730.75;5056256;28;20198;-69
2022/08/01 04:32:22;;;;;;;3.20;3.00;;;;;;;20.65;42.08;94731.06;5057765;28;20522;-69
2022/08/01 04:34:51;;;;;;;3.88;3.58;;;;;;;20.68;41.74;94726.63;5057413;28;20240;-68
2022/08/01 04:37:18;;;;;;;3.78;3.28;;;;;;;20.66;42.23;94729.03;5056988;28;20667;-68
2022/08/01 04:39:47;;;;;;;3.13;2.92;;;;;;;20.70;42.29;94731.78;5057191;28;20190;-70
2022/08/01 04:42:16;;;;;;;3.40;3.05;;;;;;;20.70;41.99;94732.59;5056570;28;20572;-69
2022/08/01 04:44:44;;;;;;;3.58;3.28;;;;;;;20.70;42.09;94738.19;5057232;28;20251;-69
2022/08/01 04:47:16;;;;;;;3.38;3.08;;;;;;;20.70;42.73;94734.59;5056214;28;20602;-69
2022/08/01 04:49:45;;;;;;;3.95;3.13;;;;;;;21.16;45.54;94740.16;5056314;28;20263;-69
2022/08/01 04:52:14;;;;;;;3.65;3.10;;;;;;;21.46;45.42;94740.41;5056168;28;20193;-69
2022/08/01 04:54:42;;;;;;;3.45;3.00;;;;;;;21.51;45.98;94742.72;5055879;28;20205;-69
2022/08/01 04:57:10;;;;;;;5.13;3.55;;;;;;;21.64;45.42;94735.22;5056235;28;20205;-69
2022/08/01 04:59:43;;;;;;;5.10;4.13;;;;;;;21.39;46.17;94739.34;5056209;28;20198;-69
2022/08/01 05:02:13;;;;;;;4.18;3.80;;;;;;;21.51;47.28;94742.72;5056736;28;20201;-69
2022/08/01 05:04:40;;;;;;;5.57;4.13;;;;;;;21.57;46.52;94741.81;5038936;28;20290;-69
2022/08/01 05:07:10;;;;;;;4.60;4.15;;;;;;;21.50;47.29;94743.97;5039203;28;20205;-69
2022/08/01 05:09:41;;;;;;;4.55;4.15;;;;;;;21.36;47.68;94739.41;5056275;28;20197;-70
2022/08/01 05:12:09;;;;;;;6.32;4.70;;;;;;;21.17;48.03;94729.75;5056893;28;20186;-69
2022/08/01 05:14:37;;;;;;;6.25;4.68;;;;;;;21.08;48.69;94727.50;5056892;28;20186;-69
2022/08/01 05:17:10;;;;;;;6.10;4.78;;;;;;;20.87;49.25;94727.88;5056077;28;20197;-68
2022/08/01 05:19:39;;;;;;;5.07;4.57;;;;;;;20.88;50.45;94735.88;5055600;28;20259;-68
2022/08/01 05:22:09;;;;;;;4.65;4.25;;;;;;;21.27;49.38;94734.34;5055589;28;20622;-69
2022/08/01 05:24:40;;;;;;;5.00;4.38;;;;;;;21.16;49.12;94748.56;5056116;28;20218;-70
2022/08/01 05:27:08;;;;;;;4.57;4.10;;;;;;;20.97;49.58;94734.53;5055854;28;20204;-70
2022/08/01 05:29:36;;;;;;;5.30;4.32;;;;;;;20.87;50.70;94739.09;5056610;28;20255;-70
2022/08/01 05:32:04;;;;;;;5.47;4.50;;;;;;;20.79;51.64;94738.44;5055752;28;20216;-70
2022/08/01 05:34:32;;;;;;;6.05;4.65;;;;;;;20.76;51.49;94735.69;5055500;28;20230;-69
2022/08/01 05:36:59;;;;;;;4.85;4.40;;;;;;;20.73;51.82;94731.72;5055171;28;20205;-70
2022/08/01 05:39:27;;;;;;;5.63;4.00;;;;;;;20.71;51.65;94730.59;5056158;28;20629;-70
2022/08/01 05:41:57;;;;;;;4.22;3.85;;;;;;;20.73;50.55;94737.31;5056096;28;20189;-69
2022/08/01 05:44:25;;;;;;;4.13;3.72;;;;;;;20.77;50.63;94738.09;5055686;28;20216;-69
2022/08/01 05:46:53;;;;;;;4.28;3.92;;;;;;;20.77;50.50;94742.88;5055275;28;20201;-69
2022/08/01 05:49:23;;;;;;;4.53;4.03;;;;;;;20.80;50.96;94742.03;5054928;28;20201;-69
2022/08/01 05:51:53;;;;;;;6.07;4.38;;;;;;;20.84;50.00;94743.56;5056061;28;20190;-69
2022/08/01 05:54:20;;;;;;;3.17;2.97;;;;;;;20.86;44.57;94746.72;5056357;28;20628;-70
2022/08/01 05:56:48;;;;;;;3.20;2.85;;;;;;;20.92;44.03;94745.00;5055949;28;20182;-70
2022/08/01 05:59:17;;;;;;;3.05;2.35;;;;;;;20.93;42.79;94743.00;5054890;28;20201;-70
2022/08/01 06:01:47;;;;;;;2.92;2.45;;;;;;;20.91;42.00;94748.22;5054958;28;20201;-69
2022/08/01 06:04:16;;;;;;;3.65;2.80;;;;;;;20.92;42.52;94742.22;5054598;28;20217;-69
2022/08/01 06:06:44;;;;;;;3.20;2.90;;;;;;;20.95;42.25;94742.56;5055187;28;20202;-70
2022/08/01 06:09:12;;;;;;;2.50;2.30;;;;;;;20.97;42.67;94743.72;5054955;28;20189;-70
2022/08/01 06:11:40;;;;;;;3.28;2.70;;;;;;;21.00;42.16;94742.88;5054796;28;20204;-69
2022/08/01 06:14:08;;;;;;;2.75;2.30;;;;;;;20.95;42.05;94745.34;5055107;28;20198;-68
2022/08/01 06:16:36;;;;;;;3.00;2.70;;;;;;;20.94;42.37;94738.97;5054965;28;20202;-68
2022/08/01 06:19:04;;;;;;;2.50;2.40;;;;;;;20.99;42.35;94740.47;5055710;28;20186;-68
2022/08/01 06:21:32;;;;;;;3.60;2.53;;;;;;;20.94;42.44;94744.56;5054421;28;20211;-68
2022/08/01 06:24:01;;;;;;;2.50;2.30;;;;;;;20.95;42.57;94740.53;5055473;28;20240;-69
2022/08/01 06:26:28;;;;;;;3.60;3.30;;;;;;;20.96;42.91;94744.16;5054571;28;20194;-68
2022/08/01 06:28:56;;;;;;;2.72;2.53;;;;;;;20.98;42.68;94750.13;5054785;28;20201;-68
2022/08/01 06:31:25;;;;;;;2.80;2.60;;;;;;;21.02;42.77;94751.63;5054509;28;20198;-69
2022/08/01 06:33:56;;;;;;;2.83;2.60;;;;;;;21.04;42.21;94740.78;5054251;28;20241;-69
2022/08/01 06:36:25;;;;;;;3.25;2.90;;;;;;;21.06;42.91;94741.16;5054642;28;20198;-69
2022/08/01 06:38:53;;;;;;;2.90;2.40;;;;;;;21.05;42.36;94742.38;5055363;28;20685;-69
2022/08/01 06:41:21;;;;;;;2.88;2.50;;;;;;;21.08;43.10;94732.31;5055352;28;20189;-69
2022/08/01 06:43:48;;;;;;;2.88;2.67;;;;;;;21.14;43.44;94741.81;5055416;28;20205;-69
2022/08/01 06:46:16;;;;;;;3.55;3.05;;;;;;;21.11;42.79;94737.84;5054440;28;20193;-69
2022/08/01 06:48:44;;;;;;;3.00;2.80;;;;;;;21.08;43.15;94733.09;5055075;28;20190;-68
2022/08/01 06:51:17;;;;;;;3.92;3.17;;;;;;;21.07;43.10;94733.53;5054649;28;20206;-69
2022/08/01 06:53:44;;;;;;;3.20;2.90;;;;;;;21.12;43.55;94733.81;5054325;28;20209;-68
2022/08/01 06:56:12;;;;;;;3.50;3.22;;;;;;;21.17;43.87;94726.94;5054474;28;20202;-68
2022/08/01 06:58:40;;;;;;;3.13;2.92;;;;;;;21.20;43.22;94723.25;5055226;28;20182;-68
2022/08/01 07:01:08;;;;;;;3.08;2.88;;;;;;;21.19;43.30;94721.69;5054411;28;20206;-68
2022/08/01 07:03:37;;;;;;;4.30;4.00;;;;;;;21.29;44.22;94719.91;5055044;28;20204;-68
2022/08/01 07:06:04;;;;;;;4.55;4.00;;;;;;;21.32;44.55;94714.22;5053853;28;20648;-68
2022/08/01 07:08:32;;;;;;;3.55;3.22;;;;;;;21.34;44.38;94708.97;5054470;28;20197;-68
2022/08/01 07:10:59;;;;;;;3.88;3.55;;;;;;;21.35;43.86;94721.81;5054632;28;20202;-68
2022/08/01 07:13:27;;;;;;;3.25;3.03;;;;;;;21.35;44.18;94719.00;5053683;28;20201;-68
2022/08/01 07:15:55;;;;;;;3.50;3.30;;;;;;;21.34;44.59;94730.63;5056906;28;20210;-69
2022/08/01 07:18:23;;;;;;;3.88;3.58;;;;;;;21.35;44.35;94721.00;5057840;28;20529;-69
2022/08/01 07:20:51;;;;;;;3.45;3.15;;;;;;;21.34;43.91;94731.41;5058162;28;20193;-69
2022/08/01 07:23:20;;;;;;;3.30;3.00;;;;;;;21.33;44.33;94723.41;5057890;28;20198;-70
2022/08/01 07:25:50;;;;;;;3.72;3.30;;;;;;;21.38;44.42;94723.72;5058877;28;20206;-70
2022/08/01 07:28:17;;;;;;;3.22;2.92;;;;;;;21.43;44.51;94719.66;5058432;28;20220;-70
2022/08/01 07:30:45;;;;;;;3.00;2.80;;;;;;;21.51;44.28;94726.69;5058893;28;20185;-70
2022/08/01 07:33:12;;;;;;;3.30;3.10;;;;;;;21.62;43.77;94734.88;5057841;28;20249;-70
2022/08/01 07:35:43;;;;;;;3.80;2.92;;;;;;;21.64;43.01;94726.81;5057843;28;20292;-70
2022/08/01 07:38:09;;;;;;;4.30;3.00;;;;;;;21.68;43.87;94718.31;5058561;28;20200;-70
2022/08/01 07:40:38;;;;;;;4.15;3.22;;;;;;;21.74;44.03;94720.19;5058881;28;20182;-71
2022/08/01 07:43:07;;;;;;;3.38;3.08;;;;;;;21.80;42.99;94723.28;5057667;28;20223;-71
2022/08/01 07:45:35;;;;;;;3.50;3.20;;;;;;;21.82;43.25;94727.25;5057560;28;20229;-71
2022/08/01 07:48:07;;;;;;;3.58;3.28;;;;;;;21.88;43.41;94722.69;5058217;28;20565;-71
2022/08/01 07:50:35;;;;;;;3.00;2.80;;;;;;;21.95;43.73;94716.13;5058564;28;20263;-71
2022/08/01 07:53:03;;;;;;;3.72;3.35;;;;;;;21.98;43.52;94723.69;5057580;28;20548;-71
2022/08/01 07:55:30;;;;;;;3.97;3.30;;;;;;;22.01;43.80;94720.00;5057840;28;20228;-71
2022/08/01 07:57:58;;;;;;;3.20;3.00;;;;;;;22.06;43.98;94716.66;5058560;28;20208;-71
2022/08/01 08:00:28;;;;;;;3.25;3.03;;;;;;;22.11;43.33;94726.59;5057599;28;20206;-68
2022/08/01 08:02:58;;;;;;;3.50;3.20;;;;;;;22.18;44.76;94732.06;5058489;28;20216;-68
2022/08/01 08:05:27;;;;;;;3.42;3.13;;;;;;;22.33;44.59;94724.09;5056983;28;20565;-69
2022/08/01 08:07:56;;;;;;;4.22;3.28;;;;;;;22.52;43.99;94728.88;5057740;28;20201;-68
2022/08/01 08:10:25;;;;;;;3.67;2.88;;;;;;;22.65;44.01;94728.94;5056830;28;20606;-68
2022/08/01 08:12:53;;;;;;;4.63;3.47;;;;;;;22.73;43.54;94730.38;5057438;28;20190;-67
2022/08/01 08:15:20;;;;;;;3.47;3.17;;;;;;;22.80;42.70;94735.00;5057035;28;20206;-68
2022/08/01 08:17:48;;;;;;;3.80;3.50;;;;;;;22.83;43.18;94732.09;5056942;28;20643;-67
2022/08/01 08:20:16;;;;;;;3.15;2.83;;;;;;;22.82;41.31;94730.53;5057491;28;20205;-67
2022/08/01 08:22:44;;;;;;;3.10;2.90;;;;;;;22.74;41.78;94731.16;5057720;28;20193;-67
2022/08/01 08:25:12;;;;;;;3.90;3.25;;;;;;;22.81;43.09;94725.34;5056608;28;20220;-67
2022/08/01 08:27:43;;;;;;;3.47;3.17;;;;;;;22.82;41.79;94719.28;5039552;28;20206;-69
2022/08/01 08:30:12;;;;;;;3.45;3.17;;;;;;;22.82;41.70;94719.28;5056987;28;20311;-68
2022/08/01 08:32:40;;;;;;;3.83;3.45;;;;;;;22.86;42.22;94713.56;5056599;28;20190;-68
2022/08/01 08:35:10;;;;;;;3.20;3.00;;;;;;;22.94;42.04;94725.44;5056855;28;20193;-68
2022/08/01 08:37:38;;;;;;;3.22;2.95;;;;;;;22.90;40.09;94738.78;5056187;28;20548;-67
2022/08/01 08:40:08;;;;;;;3.50;3.20;;;;;;;22.81;40.15;94728.94;5057590;28;20182;-67
2022/08/01 08:42:36;;;;;;;3.40;3.10;;;;;;;22.76;40.34;94739.91;5057586;28;20197;-68
2022/08/01 08:45:07;;;;;;;3.80;3.40;;;;;;;22.73;39.86;94733.19;5056451;28;20226;-68
2022/08/01 08:47:36;;;;;;;3.45;3.15;;;;;;;22.75;39.91;94719.44;5057417;28;20197;-68
2022/08/01 08:50:05;;;;;;;4.03;3.70;;;;;;;22.89;40.20;94720.31;5057425;28;20190;-68
2022/08/01 08:52:36;;;;;;;3.28;3.00;;;;;;;22.94;39.60;94711.38;5056187;28;20204;-68
2022/08/01 08:55:05;;;;;;;3.40;3.10;;;;;;;22.98;40.51;94721.28;5057239;28;20197;-68
2022/08/01 08:57:33;;;;;;;4.05;3.05;;;;;;;23.06;40.29;94721.91;5056279;28;20194;-68
2022/08/01 09:00:01;;;;;;;3.35;2.72;;;;;;;23.15;38.51;94704.41;5056636;28;20219;-68
2022/08/01 09:02:31;;;;;;;3.80;3.25;;;;;;;23.26;39.47;94702.06;5056022;28;20228;-68
2022/08/01 09:04:58;;;;;;;4.05;3.13;;;;;;;23.39;38.96;94707.75;5056003;28;20217;-68
2022/08/01 09:07:26;;;;;;;3.88;3.00;;;;;;;23.49;38.77;94701.03;5056764;28;20210;-68
2022/08/01 09:09:55;;;;;;;3.58;2.95;;;;;;;23.61;38.86;94710.75;5056786;28;20281;-68
2022/08/01 09:12:22;;;;;;;3.20;2.90;;;;;;;23.74;39.60;94689.84;5055610;28;20610;-68
2022/08/01 09:14:54;;;;;;;3.30;3.08;;;;;;;23.90;40.00;94694.63;5056757;28;20178;-68
2022/08/01 09:17:22;;;;;;;4.15;3.08;;;;;;;23.96;38.60;94686.38;5055919;28;20631;-68
2022/08/01 09:19:51;;;;;;;4.18;2.97;;;;;;;24.01;38.57;94691.47;5056633;28;20178;-68
2022/08/01 09:22:22;;;;;;;2.90;2.70;;;;;;;24.07;38.50;94677.59;5056203;28;20228;-68
2022/08/01 09:25:05;;;;;;;2.65;2.45;;;;;;;24.18;38.56;94680.88;5055947;28;20209;-68
2022/08/01 09:27:34;;;;;;;4.90;3.00;;;;;;;24.22;38.32;94668.28;5056409;28;20190;-68
2022/08/01 09:30:13;;;;;;;3.10;2.90;;;;;;;24.29;38.04;94677.72;5055462;28;20212;-68
2022/08/01 09:33:00;;;;;;;3.22;2.92;;;;;;;24.33;38.77;94684.03;5056321;28;20185;-70
2022/08/01 09:35:29;;;;;;;3.13;2.92;;;;;;;24.37;37.09;94687.53;5055375;28;20205;-70
2022/08/01 09:38:16;;;;;;;2.80;2.60;;;;;;;24.42;37.62;94682.13;5055744;28;20198;-70
2022/08/01 09:40:49;;;;;;;3.20;3.00;;;;;;;24.47;38.26;94690.03;5056530;28;20264;-69
2022/08/01 09:43:16;;;;;;;3.45;3.25;;;;;;;24.52;38.02;94679.44;5055407;28;20534;-69
2022/08/01 09:45:44;;;;;;;3.60;3.30;;;;;;;24.53;38.77;94684.59;5056273;28;20217;-68
2022/08/01 09:48:13;;;;;;;3.38;3.08;;;;;;;24.58;39.16;94684.03;5055355;28;20200;-69
2022/08/01 09:50:42;;;;;;;3.33;2.92;;;;;;;24.56;39.02;94692.16;5055518;28;20243;-69
2022/08/01 09:53:10;;;;;;;4.13;3.72;;;;;;;24.60;39.75;94678.72;5055131;28;20202;-69
2022/08/01 09:55:39;;;;;;;4.68;3.05;;;;;;;24.69;39.53;94681.66;5055935;28;20186;-69
2022/08/01 09:58:10;;;;;;;3.33;3.15;;;;;;;24.80;38.16;94678.47;5056106;28;20201;-69
2022/08/01 10:00:39;;;;;;;3.55;3.25;;;;;;;24.85;37.68;94680.72;5056131;28;20197;-68
2022/08/01 10:03:23;;;;;;;3.47;3.17;;;;;;;24.92;37.70;94676.88;5055465;28;20198;-69
2022/08/01 10:05:53;;;;;;;3.60;3.28;;;;;;;24.93;38.90;94672.78;5053886;28;20248;-69
2022/08/01 10:08:23;;;;;;;3.50;3.20;;;;;;;24.90;39.05;94674.47;5055138;28;20193;-68
2022/08/01 10:11:08;;;;;;;3.35;3.15;;;;;;;25.02;38.61;94680.53;5054884;28;20193;-68
2022/08/01 10:13:37;;;;;;;3.60;3.30;;;;;;;25.05;39.40;94682.44;5055600;28;20197;-68
2022/08/01 10:16:06;;;;;;;3.75;3.45;;;;;;;25.08;38.24;94673.84;5054970;28;20609;-71
2022/08/01 10:18:35;;;;;;;4.60;4.28;;;;;;;25.10;37.67;94679.88;5055867;28;20584;-70
2022/08/01 10:21:04;;;;;;;3.95;3.60;;;;;;;25.12;37.31;94679.41;5055714;28;20189;-70
2022/08/01 10:23:35;;;;;;;3.30;3.10;;;;;;;25.11;36.76;94667.34;5054774;28;20202;-70
2022/08/01 10:26:04;;;;;;;4.28;3.70;;;;;;;25.03;37.48;94666.00;5054445;28;20228;-70
2022/08/01 10:28:37;;;;;;;3.25;3.05;;;;;;;24.85;37.88;94668.66;5055122;28;20236;-70
2022/08/01 10:31:04;;;;;;;3.10;2.90;;;;;;;24.75;37.64;94684.69;5054690;28;20197;-70
2022/08/01 10:33:33;;;;;;;3.72;3.33;;;;;;;24.81;37.99;94665.94;5054588;28;20256;-70
2022/08/01 10:36:00;;;;;;;3.60;3.33;;;;;;;25.01;39.04;94668.47;5054789;28;20204;-70
2022/08/01 10:38:28;;;;;;;3.22;2.97;;;;;;;25.13;36.95;94662.03;5055504;28;20189;-69
2022/08/01 10:40:58;;;;;;;3.92;3.53;;;;;;;25.16;37.19;94658.31;5054280;28;20201;-70
2022/08/01 10:43:27;;;;;;;3.53;3.22;;;;;;;25.13;36.99;94656.41;5054645;28;20202;-70
2022/08/01 10:46:01;;;;;;;3.40;2.92;;;;;;;25.20;37.48;94660.97;5054659;28;20218;-71
2022/08/01 10:48:33;;;;;;;3.15;2.60;;;;;;;25.29;37.44;94655.41;5054932;28;20201;-72
2022/08/01 10:51:01;;;;;;;3.05;2.75;;;;;;;25.24;37.36;94658.03;5054542;28;20197;-69
2022/08/01 10:53:29;;;;;;;3.33;2.83;;;;;;;25.33;38.48;94647.59;5054272;28;20202;-70
2022/08/01 10:56:01;;;;;;;3.33;3.00;;;;;;;25.45;37.18;94655.22;5054914;28;20208;-70
2022/08/01 10:58:32;;;;;;;3.90;2.95;;;;;;;25.58;37.30;94651.53;5054212;28;20605;-69
2022/08/01 11:01:32;;;;;;;2.97;2.67;;;;;;;25.71;36.73;94646.59;5054377;28;20276;-68
2022/08/01 11:04:06;;;;;;;3.72;2.90;;;;;;;25.72;36.17;94645.34;5055644;28;20213;-70
2022/08/01 11:06:43;;;;;;;3.00;2.80;;;;;;;25.64;35.82;94642.00;5054831;28;20206;-71
2022/08/01 11:09:24;;;;;;;3.22;3.03;;;;;;;25.73;37.73;94638.44;5054407;28;20538;-71
2022/08/01 11:12:01;;;;;;;3.10;2.72;;;;;;;25.87;37.16;94645.59;5054067;28;20228;-71
2022/08/01 11:14:30;;;;;;;3.10;2.90;;;;;;;25.95;36.06;94632.00;5054985;28;20621;-70
2022/08/01 11:17:32;;;;;;;2.83;2.63;;;;;;;26.04;36.07;94630.00;5055364;28;20186;-69
2022/08/01 11:20:10;;;;;;;4.05;3.00;;;;;;;26.09;37.02;94637.84;5054259;28;20251;-70
2022/08/01 11:23:13;;;;;;;3.25;2.85;;;;;;;26.13;35.82;94641.31;5054415;28;20208;-70
2022/08/01 11:26:16;;;;;;;3.40;2.97;;;;;;;26.23;36.13;94630.84;5052367;28;20228;-70
2022/08/01 11:28:46;;;;;;;5.65;3.08;;;;;;;26.33;35.95;94626.03;5054946;28;20190;-69
2022/08/01 11:31:28;;;;;;;3.33;3.00;;;;;;;26.44;36.14;94625.59;5054314;28;20194;-70
2022/08/01 11:33:58;;;;;;;3.42;3.15;;;;;;;26.48;36.58;94640.38;5054568;28;20226;-71
2022/08/01 11:36:26;;;;;;;3.50;3.20;;;;;;;26.50;35.56;94635.81;5055106;28;20186;-70
2022/08/01 11:39:18;;;;;;;3.40;3.20;;;;;;;26.52;35.36;94629.72;5054232;28;20622;-70
2022/08/01 11:41:48;;;;;;;3.00;2.80;;;;;;;26.51;35.37;94630.94;5054885;28;20186;-70
2022/08/01 11:44:25;;;;;;;3.58;3.15;;;;;;;26.55;37.42;94629.56;5054890;28;20178;-70
2022/08/01 11:47:02;;;;;;;2.97;2.78;;;;;;;26.56;35.75;94625.47;5054244;28;20213;-70